• Join FlightAware (Why Join?)
  • Login
  • US Flag 
01:39PM EDT


 

Airport Tracker/Info


-or-


 

Live Flight TrackerFlight Track Log ✈ AFL1227 ✈ 10-Jul-2014 ✈ UWGG / GOJ - UUEE / SVO

Flight Track Log - Related Links

Times and Time Zones

All times are in EDT time to prevent confusion due to time zone crossing. See the AFL1227 flight status page for this flight to view local times or setup timezone preferences in your user account.

Time Position Orientation Groundspeed Altitude Reporting Facility
EDT Latitude Longitude Course Direction KTS MPH feet Rate Location/Type
10:28AM 56.1111 41.8317 269° West  Level Estimated
10:29AM 56.1090 41.6808 269° West  Level Estimated
10:30AM 56.1067 41.5299 268° West  Level Estimated
10:31AM 56.1042 41.3790 268° West  Level Estimated
10:32AM 56.1015 41.2282 268° West  Level Estimated
10:33AM 56.0987 41.0773 268° West  Level Estimated
10:34AM 56.0956 40.9265 268° West  Level Estimated
10:35AM 56.0924 40.7757 268° West  Level Estimated
10:36AM 56.0890 40.6249 268° West  Level Estimated
10:37AM 56.0854 40.4742 268° West  Level Estimated
10:38AM 56.0817 40.3235 267° West  Level Estimated
10:39AM 56.0766 40.1306 267° West  Level Estimated
10:40AM 56.0712 39.9377 267° West  Level Estimated
10:41AM 56.0655 39.7449 267° West  Level Estimated
10:42AM 56.0595 39.5522 267° West  Level Estimated
10:43AM 56.0532 39.3595 267° West  Level Estimated
10:44AM 56.0466 39.1669 267° West  Level Estimated
10:45AM 56.0397 38.9743 266° West  Level Estimated
10:46AM 56.0325 38.7818 266° West  Level Estimated
10:47AM 56.0250 38.5894 266° West  Level Estimated
10:48AM 56.0172 38.3971 266° West  Level Estimated
10:49AM 56.0091 38.2048 266° West  Level Estimated
10:50AM 56.0007 38.0126 266° West  Level Estimated
10:51AM 55.9920 37.8205 265° West  Level Estimated
10:52AM 55.9830 37.6286 265° West  Level Estimated
10:53AM 55.9737 37.4366 265° West  Level Estimated
10:54AM 55.9726 37.4146 265° West  Level Estimated
10:55AM 55.9726 37.4146 North  Level Estimated
10:56AM 55.9726 37.4146 North  Level Estimated
10:57AM 55.9726 37.4146 North  Level Estimated
10:58AM 55.9726 37.4146 North  Level Estimated
10:59AM 55.9726 37.4146 North  Level Estimated
11:00AM 55.9726 37.4146 North  Level Estimated
11:01AM 55.9726 37.4146 North  Level Estimated
11:02AM 55.9726 37.4146 North  Level Estimated
11:03AM 55.9726 37.4146 North  Level Estimated
11:04AM 55.9726 37.4146 North  Level Estimated
11:05AM 55.9726 37.4146 North  Level Estimated
11:06AM 55.9726 37.4146 North  Level Estimated
11:07AM 55.9726 37.4146 North  Level Estimated
11:08AM 55.9726 37.4146 North  Level Estimated
11:09AM 55.9726 37.4146 North  Level Estimated